sensor_id;sensor_type;location;lat;lon;timestamp;P1;durP1;ratioP1;P2;durP2;ratioP2
58864;SDS011;45702;52.982;6.658;2023-10-19T00:00:52;56.28;;;29.67;;
58864;SDS011;45702;52.982;6.658;2023-10-19T00:03:24;58.08;;;27.75;;
58864;SDS011;45702;52.982;6.658;2023-10-19T00:05:50;57.72;;;28.50;;
58864;SDS011;45702;52.982;6.658;2023-10-19T00:08:16;59.05;;;29.40;;
58864;SDS011;45702;52.982;6.658;2023-10-19T00:10:52;57.67;;;29.42;;
58864;SDS011;45702;52.982;6.658;2023-10-19T00:13:30;66.90;;;30.45;;
58864;SDS011;45702;52.982;6.658;2023-10-19T00:15:56;61.05;;;30.30;;
58864;SDS011;45702;52.982;6.658;2023-10-19T00:18:23;58.50;;;29.73;;
58864;SDS011;45702;52.982;6.658;2023-10-19T00:20:50;59.85;;;30.25;;
58864;SDS011;45702;52.982;6.658;2023-10-19T00:23:20;59.58;;;29.88;;
58864;SDS011;45702;52.982;6.658;2023-10-19T00:26:00;64.95;;;30.98;;
58864;SDS011;45702;52.982;6.658;2023-10-19T00:28:34;63.33;;;30.40;;
58864;SDS011;45702;52.982;6.658;2023-10-19T00:31:04;62.58;;;31.77;;
58864;SDS011;45702;52.982;6.658;2023-10-19T00:33:33;68.18;;;32.15;;
58864;SDS011;45702;52.982;6.658;2023-10-19T00:36:04;68.70;;;33.35;;
58864;SDS011;45702;52.982;6.658;2023-10-19T00:38:37;67.90;;;33.28;;
58864;SDS011;45702;52.982;6.658;2023-10-19T00:41:04;61.88;;;32.13;;
58864;SDS011;45702;52.982;6.658;2023-10-19T00:43:31;71.97;;;33.28;;
58864;SDS011;45702;52.982;6.658;2023-10-19T00:46:02;69.90;;;33.40;;
58864;SDS011;45702;52.982;6.658;2023-10-19T00:48:39;69.75;;;33.95;;
58864;SDS011;45702;52.982;6.658;2023-10-19T00:51:05;75.65;;;34.63;;
58864;SDS011;45702;52.982;6.658;2023-10-19T00:53:51;73.28;;;34.35;;
58864;SDS011;45702;52.982;6.658;2023-10-19T00:56:21;68.55;;;34.15;;
58864;SDS011;45702;52.982;6.658;2023-10-19T00:58:53;74.70;;;35.90;;
58864;SDS011;45702;52.982;6.658;2023-10-19T01:01:22;76.70;;;36.00;;
58864;SDS011;45702;52.982;6.658;2023-10-19T01:03:50;77.25;;;36.42;;
58864;SDS011;45702;52.982;6.658;2023-10-19T01:06:24;81.88;;;37.00;;
58864;SDS011;45702;52.982;6.658;2023-10-19T01:08:51;76.80;;;36.70;;
58864;SDS011;45702;52.982;6.658;2023-10-19T01:11:17;89.00;;;38.20;;
58864;SDS011;45702;52.982;6.658;2023-10-19T01:13:46;89.95;;;38.75;;
58864;SDS011;45702;52.982;6.658;2023-10-19T01:16:17;78.35;;;35.92;;
58864;SDS011;45702;52.982;6.658;2023-10-19T01:18:49;89.90;;;39.35;;
58864;SDS011;45702;52.982;6.658;2023-10-19T01:21:20;85.50;;;38.35;;
58864;SDS011;45702;52.982;6.658;2023-10-19T01:24:06;90.68;;;38.10;;
58864;SDS011;45702;52.982;6.658;2023-10-19T01:26:33;83.18;;;37.75;;
58864;SDS011;45702;52.982;6.658;2023-10-19T01:29:02;92.13;;;40.15;;
58864;SDS011;45702;52.982;6.658;2023-10-19T01:31:38;79.93;;;37.05;;
58864;SDS011;45702;52.982;6.658;2023-10-19T01:34:16;87.60;;;38.10;;
58864;SDS011;45702;52.982;6.658;2023-10-19T01:36:45;84.32;;;36.85;;
58864;SDS011;45702;52.982;6.658;2023-10-19T01:39:15;88.13;;;38.17;;
58864;SDS011;45702;52.982;6.658;2023-10-19T01:41:43;96.88;;;40.00;;
58864;SDS011;45702;52.982;6.658;2023-10-19T01:44:10;87.38;;;39.15;;
58864;SDS011;45702;52.982;6.658;2023-10-19T01:46:38;90.50;;;38.92;;
58864;SDS011;45702;52.982;6.658;2023-10-19T01:49:05;98.13;;;40.28;;
58864;SDS011;45702;52.982;6.658;2023-10-19T01:51:33;99.13;;;40.67;;
58864;SDS011;45702;52.982;6.658;2023-10-19T01:54:03;102.82;;;39.25;;
58864;SDS011;45702;52.982;6.658;2023-10-19T01:56:30;88.80;;;38.30;;
58864;SDS011;45702;52.982;6.658;2023-10-19T01:58:58;95.17;;;38.67;;
58864;SDS011;45702;52.982;6.658;2023-10-19T02:01:24;93.90;;;38.40;;
58864;SDS011;45702;52.982;6.658;2023-10-19T02:03:52;91.03;;;38.25;;
58864;SDS011;45702;52.982;6.658;2023-10-19T02:06:25;88.93;;;37.65;;
58864;SDS011;45702;52.982;6.658;2023-10-19T02:09:12;87.07;;;37.27;;
58864;SDS011;45702;52.982;6.658;2023-10-19T02:11:41;83.65;;;36.17;;
58864;SDS011;45702;52.982;6.658;2023-10-19T02:14:07;82.13;;;36.20;;
58864;SDS011;45702;52.982;6.658;2023-10-19T02:16:43;70.57;;;33.58;;
58864;SDS011;45702;52.982;6.658;2023-10-19T02:19:17;86.65;;;35.08;;
58864;SDS011;45702;52.982;6.658;2023-10-19T02:21:47;74.13;;;33.25;;
58864;SDS011;45702;52.982;6.658;2023-10-19T02:24:17;76.43;;;33.55;;
58864;SDS011;45702;52.982;6.658;2023-10-19T02:26:43;78.40;;;34.70;;
58864;SDS011;45702;52.982;6.658;2023-10-19T02:29:12;83.75;;;33.85;;
58864;SDS011;45702;52.982;6.658;2023-10-19T02:31:41;83.97;;;33.85;;
58864;SDS011;45702;52.982;6.658;2023-10-19T02:34:09;71.60;;;32.92;;
58864;SDS011;45702;52.982;6.658;2023-10-19T02:36:40;88.63;;;34.67;;
58864;SDS011;45702;52.982;6.658;2023-10-19T02:39:07;80.95;;;33.65;;
58864;SDS011;45702;52.982;6.658;2023-10-19T02:44:01;75.25;;;33.65;;
58864;SDS011;45702;52.982;6.658;2023-10-19T02:46:33;78.75;;;33.10;;
58864;SDS011;45702;52.982;6.658;2023-10-19T02:49:05;74.75;;;32.60;;
58864;SDS011;45702;52.982;6.658;2023-10-19T02:51:51;73.65;;;31.85;;
58864;SDS011;45702;52.982;6.658;2023-10-19T02:54:19;74.43;;;32.70;;
58864;SDS011;45702;52.982;6.658;2023-10-19T02:56:48;74.70;;;32.78;;
58864;SDS011;45702;52.982;6.658;2023-10-19T03:01:47;78.20;;;31.38;;
58864;SDS011;45702;52.982;6.658;2023-10-19T03:04:13;61.35;;;28.90;;
58864;SDS011;45702;52.982;6.658;2023-10-19T03:06:40;83.32;;;32.13;;
58864;SDS011;45702;52.982;6.658;2023-10-19T03:09:06;79.63;;;31.10;;
58864;SDS011;45702;52.982;6.658;2023-10-19T03:11:54;70.40;;;30.13;;
58864;SDS011;45702;52.982;6.658;2023-10-19T03:14:35;81.40;;;31.13;;
58864;SDS011;45702;52.982;6.658;2023-10-19T03:17:02;66.53;;;29.23;;
58864;SDS011;45702;52.982;6.658;2023-10-19T03:19:29;61.25;;;29.05;;
58864;SDS011;45702;52.982;6.658;2023-10-19T03:21:55;76.22;;;30.52;;
58864;SDS011;45702;52.982;6.658;2023-10-19T03:24:20;67.97;;;29.90;;
58864;SDS011;45702;52.982;6.658;2023-10-19T03:27:04;76.80;;;30.98;;
58864;SDS011;45702;52.982;6.658;2023-10-19T03:30:00;69.78;;;30.48;;
58864;SDS011;45702;52.982;6.658;2023-10-19T03:32:26;79.95;;;31.33;;
58864;SDS011;45702;52.982;6.658;2023-10-19T03:34:55;67.07;;;30.55;;
58864;SDS011;45702;52.982;6.658;2023-10-19T03:37:27;77.10;;;31.05;;
58864;SDS011;45702;52.982;6.658;2023-10-19T03:39:57;79.35;;;31.73;;
58864;SDS011;45702;52.982;6.658;2023-10-19T03:42:23;69.75;;;28.63;;
58864;SDS011;45702;52.982;6.658;2023-10-19T03:44:54;62.20;;;28.38;;
58864;SDS011;45702;52.982;6.658;2023-10-19T03:47:22;59.53;;;27.23;;
58864;SDS011;45702;52.982;6.658;2023-10-19T03:49:52;56.42;;;26.60;;
58864;SDS011;45702;52.982;6.658;2023-10-19T03:52:18;63.63;;;27.48;;
58864;SDS011;45702;52.982;6.658;2023-10-19T03:54:43;67.60;;;26.77;;
58864;SDS011;45702;52.982;6.658;2023-10-19T03:57:13;52.63;;;24.38;;
58864;SDS011;45702;52.982;6.658;2023-10-19T03:59:44;64.70;;;25.95;;
58864;SDS011;45702;52.982;6.658;2023-10-19T04:02:10;51.13;;;24.48;;
58864;SDS011;45702;52.982;6.658;2023-10-19T04:04:41;69.40;;;26.85;;
58864;SDS011;45702;52.982;6.658;2023-10-19T04:07:14;62.28;;;26.20;;
58864;SDS011;45702;52.982;6.658;2023-10-19T04:12:23;54.97;;;24.73;;
58864;SDS011;45702;52.982;6.658;2023-10-19T04:14:49;48.10;;;23.85;;
58864;SDS011;45702;52.982;6.658;2023-10-19T04:17:14;49.88;;;23.95;;
58864;SDS011;45702;52.982;6.658;2023-10-19T04:19:41;54.33;;;24.25;;
58864;SDS011;45702;52.982;6.658;2023-10-19T04:22:07;55.40;;;24.33;;
58864;SDS011;45702;52.982;6.658;2023-10-19T04:24:36;50.92;;;23.48;;
58864;SDS011;45702;52.982;6.658;2023-10-19T04:27:02;55.97;;;24.88;;
58864;SDS011;45702;52.982;6.658;2023-10-19T04:29:28;51.20;;;22.98;;
58864;SDS011;45702;52.982;6.658;2023-10-19T04:31:54;67.22;;;25.35;;
58864;SDS011;45702;52.982;6.658;2023-10-19T04:34:20;69.53;;;24.75;;
58864;SDS011;45702;52.982;6.658;2023-10-19T04:36:47;50.05;;;23.67;;
58864;SDS011;45702;52.982;6.658;2023-10-19T04:39:17;55.10;;;23.83;;
58864;SDS011;45702;52.982;6.658;2023-10-19T04:41:46;56.95;;;23.40;;
58864;SDS011;45702;52.982;6.658;2023-10-19T04:44:15;53.33;;;22.38;;
58864;SDS011;45702;52.982;6.658;2023-10-19T04:46:41;56.00;;;22.98;;
58864;SDS011;45702;52.982;6.658;2023-10-19T04:49:07;51.55;;;22.13;;
58864;SDS011;45702;52.982;6.658;2023-10-19T04:51:34;45.58;;;20.50;;
58864;SDS011;45702;52.982;6.658;2023-10-19T04:54:04;51.88;;;20.85;;
58864;SDS011;45702;52.982;6.658;2023-10-19T04:56:30;41.20;;;19.90;;
58864;SDS011;45702;52.982;6.658;2023-10-19T04:58:57;41.35;;;20.05;;
58864;SDS011;45702;52.982;6.658;2023-10-19T05:01:22;49.78;;;20.70;;
58864;SDS011;45702;52.982;6.658;2023-10-19T05:03:48;46.88;;;20.48;;
58864;SDS011;45702;52.982;6.658;2023-10-19T05:06:14;42.20;;;20.27;;
58864;SDS011;45702;52.982;6.658;2023-10-19T05:08:39;44.28;;;20.42;;
58864;SDS011;45702;52.982;6.658;2023-10-19T05:11:05;44.90;;;20.75;;
58864;SDS011;45702;52.982;6.658;2023-10-19T05:13:31;42.25;;;21.08;;
58864;SDS011;45702;52.982;6.658;2023-10-19T05:15:57;42.03;;;20.33;;
58864;SDS011;45702;52.982;6.658;2023-10-19T05:18:24;47.92;;;20.92;;
58864;SDS011;45702;52.982;6.658;2023-10-19T05:20:54;52.88;;;21.65;;
58864;SDS011;45702;52.982;6.658;2023-10-19T05:23:26;37.47;;;19.23;;
58864;SDS011;45702;52.982;6.658;2023-10-19T05:25:53;42.95;;;19.95;;
58864;SDS011;45702;52.982;6.658;2023-10-19T05:28:25;46.58;;;20.63;;
58864;SDS011;45702;52.982;6.658;2023-10-19T05:30:50;47.30;;;20.70;;
58864;SDS011;45702;52.982;6.658;2023-10-19T05:33:16;51.05;;;20.77;;
58864;SDS011;45702;52.982;6.658;2023-10-19T05:35:46;42.72;;;19.95;;
58864;SDS011;45702;52.982;6.658;2023-10-19T05:38:16;43.10;;;19.85;;
58864;SDS011;45702;52.982;6.658;2023-10-19T05:40:42;47.25;;;20.42;;
58864;SDS011;45702;52.982;6.658;2023-10-19T05:43:08;42.70;;;18.85;;
58864;SDS011;45702;52.982;6.658;2023-10-19T05:45:34;45.92;;;19.85;;
58864;SDS011;45702;52.982;6.658;2023-10-19T05:48:01;46.38;;;19.83;;
58864;SDS011;45702;52.982;6.658;2023-10-19T05:50:29;35.90;;;17.35;;
58864;SDS011;45702;52.982;6.658;2023-10-19T05:52:55;32.75;;;17.38;;
58864;SDS011;45702;52.982;6.658;2023-10-19T05:55:21;35.33;;;16.92;;
58864;SDS011;45702;52.982;6.658;2023-10-19T05:57:47;35.35;;;16.45;;
58864;SDS011;45702;52.982;6.658;2023-10-19T06:00:12;41.47;;;16.70;;
58864;SDS011;45702;52.982;6.658;2023-10-19T06:02:42;33.63;;;15.80;;
58864;SDS011;45702;52.982;6.658;2023-10-19T06:05:09;31.02;;;14.95;;
58864;SDS011;45702;52.982;6.658;2023-10-19T06:07:35;28.77;;;14.57;;
58864;SDS011;45702;52.982;6.658;2023-10-19T06:10:01;34.30;;;16.00;;
58864;SDS011;45702;52.982;6.658;2023-10-19T06:12:32;36.05;;;16.05;;
58864;SDS011;45702;52.982;6.658;2023-10-19T06:14:58;33.33;;;15.65;;
58864;SDS011;45702;52.982;6.658;2023-10-19T06:17:25;32.38;;;14.98;;
58864;SDS011;45702;52.982;6.658;2023-10-19T06:19:52;34.30;;;15.50;;
58864;SDS011;45702;52.982;6.658;2023-10-19T06:22:18;35.78;;;15.95;;
58864;SDS011;45702;52.982;6.658;2023-10-19T06:24:44;31.67;;;15.38;;
58864;SDS011;45702;52.982;6.658;2023-10-19T06:27:10;28.73;;;14.63;;
58864;SDS011;45702;52.982;6.658;2023-10-19T06:29:35;33.30;;;15.48;;
58864;SDS011;45702;52.982;6.658;2023-10-19T06:32:01;26.80;;;14.52;;
58864;SDS011;45702;52.982;6.658;2023-10-19T06:34:27;37.33;;;15.65;;
58864;SDS011;45702;52.982;6.658;2023-10-19T06:36:53;34.65;;;14.93;;
58864;SDS011;45702;52.982;6.658;2023-10-19T06:39:19;30.73;;;15.20;;
58864;SDS011;45702;52.982;6.658;2023-10-19T06:41:46;33.50;;;14.52;;
58864;SDS011;45702;52.982;6.658;2023-10-19T06:44:13;31.33;;;15.27;;
58864;SDS011;45702;52.982;6.658;2023-10-19T06:46:38;30.77;;;15.15;;
58864;SDS011;45702;52.982;6.658;2023-10-19T06:49:04;29.42;;;15.02;;
58864;SDS011;45702;52.982;6.658;2023-10-19T06:51:30;23.10;;;12.95;;
58864;SDS011;45702;52.982;6.658;2023-10-19T06:53:58;27.85;;;14.27;;
58864;SDS011;45702;52.982;6.658;2023-10-19T06:56:24;24.15;;;12.80;;
58864;SDS011;45702;52.982;6.658;2023-10-19T06:58:49;25.40;;;13.45;;
58864;SDS011;45702;52.982;6.658;2023-10-19T07:01:15;26.63;;;13.57;;
58864;SDS011;45702;52.982;6.658;2023-10-19T07:03:48;31.52;;;13.95;;
58864;SDS011;45702;52.982;6.658;2023-10-19T07:06:13;21.85;;;12.25;;
58864;SDS011;45702;52.982;6.658;2023-10-19T07:08:40;21.13;;;12.20;;
58864;SDS011;45702;52.982;6.658;2023-10-19T07:11:08;20.13;;;11.82;;
58864;SDS011;45702;52.982;6.658;2023-10-19T07:13:34;23.95;;;12.40;;
58864;SDS011;45702;52.982;6.658;2023-10-19T07:16:00;24.65;;;12.38;;
58864;SDS011;45702;52.982;6.658;2023-10-19T07:18:26;35.10;;;14.10;;
58864;SDS011;45702;52.982;6.658;2023-10-19T07:20:51;19.42;;;11.38;;
58864;SDS011;45702;52.982;6.658;2023-10-19T07:23:18;24.45;;;12.52;;
58864;SDS011;45702;52.982;6.658;2023-10-19T07:25:49;21.07;;;12.07;;
58864;SDS011;45702;52.982;6.658;2023-10-19T07:28:19;20.60;;;11.75;;
58864;SDS011;45702;52.982;6.658;2023-10-19T07:30:46;19.55;;;11.82;;
58864;SDS011;45702;52.982;6.658;2023-10-19T07:33:13;20.95;;;11.77;;
58864;SDS011;45702;52.982;6.658;2023-10-19T07:35:42;19.23;;;11.50;;
58864;SDS011;45702;52.982;6.658;2023-10-19T07:38:11;19.65;;;11.68;;
58864;SDS011;45702;52.982;6.658;2023-10-19T07:40:38;25.20;;;13.00;;
58864;SDS011;45702;52.982;6.658;2023-10-19T07:43:04;24.92;;;13.55;;
58864;SDS011;45702;52.982;6.658;2023-10-19T07:45:30;22.08;;;12.77;;
58864;SDS011;45702;52.982;6.658;2023-10-19T07:47:57;20.95;;;12.25;;
58864;SDS011;45702;52.982;6.658;2023-10-19T07:50:31;24.40;;;13.52;;
58864;SDS011;45702;52.982;6.658;2023-10-19T07:52:58;23.95;;;13.40;;
58864;SDS011;45702;52.982;6.658;2023-10-19T07:55:24;27.55;;;13.95;;
58864;SDS011;45702;52.982;6.658;2023-10-19T07:57:50;23.02;;;13.02;;
58864;SDS011;45702;52.982;6.658;2023-10-19T08:00:16;23.02;;;13.13;;
58864;SDS011;45702;52.982;6.658;2023-10-19T08:02:43;22.70;;;13.10;;
58864;SDS011;45702;52.982;6.658;2023-10-19T08:05:16;29.27;;;15.07;;
58864;SDS011;45702;52.982;6.658;2023-10-19T08:07:43;27.23;;;14.15;;
58864;SDS011;45702;52.982;6.658;2023-10-19T08:10:10;31.60;;;15.65;;
58864;SDS011;45702;52.982;6.658;2023-10-19T08:12:40;35.08;;;16.00;;
58864;SDS011;45702;52.982;6.658;2023-10-19T08:15:07;35.60;;;15.65;;
58864;SDS011;45702;52.982;6.658;2023-10-19T08:17:47;33.60;;;15.32;;
58864;SDS011;45702;52.982;6.658;2023-10-19T08:20:14;28.88;;;14.80;;
58864;SDS011;45702;52.982;6.658;2023-10-19T08:22:53;31.70;;;15.40;;
58864;SDS011;45702;52.982;6.658;2023-10-19T08:25:22;37.35;;;16.40;;
58864;SDS011;45702;52.982;6.658;2023-10-19T08:27:48;36.00;;;16.08;;
58864;SDS011;45702;52.982;6.658;2023-10-19T08:30:21;39.65;;;17.48;;
58864;SDS011;45702;52.982;6.658;2023-10-19T08:32:47;33.90;;;16.45;;
58864;SDS011;45702;52.982;6.658;2023-10-19T08:35:14;34.65;;;16.60;;
58864;SDS011;45702;52.982;6.658;2023-10-19T08:37:43;35.05;;;16.95;;
58864;SDS011;45702;52.982;6.658;2023-10-19T08:40:11;41.43;;;17.50;;
58864;SDS011;45702;52.982;6.658;2023-10-19T08:42:46;42.08;;;17.08;;
58864;SDS011;45702;52.982;6.658;2023-10-19T08:45:13;43.53;;;17.63;;
58864;SDS011;45702;52.982;6.658;2023-10-19T08:47:48;38.22;;;16.90;;
58864;SDS011;45702;52.982;6.658;2023-10-19T08:50:29;42.78;;;17.58;;
58864;SDS011;45702;52.982;6.658;2023-10-19T08:52:57;35.70;;;16.67;;
58864;SDS011;45702;52.982;6.658;2023-10-19T08:55:23;37.33;;;17.90;;
58864;SDS011;45702;52.982;6.658;2023-10-19T08:57:50;49.70;;;18.85;;
58864;SDS011;45702;52.982;6.658;2023-10-19T09:00:16;48.35;;;18.63;;
58864;SDS011;45702;52.982;6.658;2023-10-19T09:02:46;45.65;;;18.83;;
58864;SDS011;45702;52.982;6.658;2023-10-19T09:05:12;42.33;;;18.02;;
58864;SDS011;45702;52.982;6.658;2023-10-19T09:07:54;39.70;;;18.08;;
58864;SDS011;45702;52.982;6.658;2023-10-19T09:10:20;38.10;;;18.27;;
58864;SDS011;45702;52.982;6.658;2023-10-19T09:13:01;40.30;;;18.10;;
58864;SDS011;45702;52.982;6.658;2023-10-19T09:15:28;44.17;;;18.85;;
58864;SDS011;45702;52.982;6.658;2023-10-19T09:20:43;44.08;;;19.20;;
58864;SDS011;45702;52.982;6.658;2023-10-19T09:23:30;39.03;;;18.20;;
58864;SDS011;45702;52.982;6.658;2023-10-19T09:25:56;40.63;;;18.75;;
58864;SDS011;45702;52.982;6.658;2023-10-19T09:28:24;40.72;;;19.38;;
58864;SDS011;45702;52.982;6.658;2023-10-19T09:30:50;42.28;;;19.33;;
58864;SDS011;45702;52.982;6.658;2023-10-19T09:33:17;37.80;;;18.23;;
58864;SDS011;45702;52.982;6.658;2023-10-19T09:35:45;37.60;;;18.92;;
58864;SDS011;45702;52.982;6.658;2023-10-19T09:38:13;51.72;;;20.38;;
58864;SDS011;45702;52.982;6.658;2023-10-19T09:40:40;42.83;;;19.40;;
58864;SDS011;45702;52.982;6.658;2023-10-19T09:43:08;41.72;;;19.60;;
58864;SDS011;45702;52.982;6.658;2023-10-19T09:45:48;41.15;;;19.38;;
58864;SDS011;45702;52.982;6.658;2023-10-19T09:48:16;45.97;;;19.95;;
58864;SDS011;45702;52.982;6.658;2023-10-19T09:50:45;46.17;;;19.77;;
58864;SDS011;45702;52.982;6.658;2023-10-19T09:53:19;49.47;;;21.35;;
58864;SDS011;45702;52.982;6.658;2023-10-19T09:55:56;52.33;;;21.88;;
58864;SDS011;45702;52.982;6.658;2023-10-19T10:01:20;51.47;;;21.20;;
58864;SDS011;45702;52.982;6.658;2023-10-19T10:03:47;47.45;;;21.23;;
58864;SDS011;45702;52.982;6.658;2023-10-19T10:06:14;52.30;;;21.63;;
58864;SDS011;45702;52.982;6.658;2023-10-19T10:08:42;58.05;;;22.92;;
58864;SDS011;45702;52.982;6.658;2023-10-19T10:11:13;47.75;;;21.40;;
58864;SDS011;45702;52.982;6.658;2023-10-19T10:13:42;47.03;;;21.02;;
58864;SDS011;45702;52.982;6.658;2023-10-19T10:16:11;54.22;;;22.73;;
58864;SDS011;45702;52.982;6.658;2023-10-19T10:18:39;45.20;;;21.23;;
58864;SDS011;45702;52.982;6.658;2023-10-19T10:21:27;54.90;;;22.38;;
58864;SDS011;45702;52.982;6.658;2023-10-19T10:23:53;52.40;;;22.38;;
58864;SDS011;45702;52.982;6.658;2023-10-19T10:26:29;46.63;;;21.73;;
58864;SDS011;45702;52.982;6.658;2023-10-19T10:31:59;50.47;;;22.42;;
58864;SDS011;45702;52.982;6.658;2023-10-19T10:37:08;51.72;;;23.35;;
58864;SDS011;45702;52.982;6.658;2023-10-19T10:39:36;52.03;;;23.55;;
58864;SDS011;45702;52.982;6.658;2023-10-19T10:42:03;50.95;;;23.00;;
58864;SDS011;45702;52.982;6.658;2023-10-19T10:47:07;60.10;;;24.40;;
58864;SDS011;45702;52.982;6.658;2023-10-19T10:49:51;53.70;;;23.88;;
58864;SDS011;45702;52.982;6.658;2023-10-19T10:55:10;53.72;;;24.88;;
58864;SDS011;45702;52.982;6.658;2023-10-19T10:57:38;52.10;;;23.90;;
58864;SDS011;45702;52.982;6.658;2023-10-19T11:00:06;56.20;;;24.52;;
58864;SDS011;45702;52.982;6.658;2023-10-19T11:02:37;54.45;;;25.27;;
58864;SDS011;45702;52.982;6.658;2023-10-19T11:05:08;56.97;;;25.40;;
58864;SDS011;45702;52.982;6.658;2023-10-19T11:10:44;68.80;;;26.80;;
58864;SDS011;45702;52.982;6.658;2023-10-19T11:13:14;62.30;;;26.13;;
58864;SDS011;45702;52.982;6.658;2023-10-19T11:15:48;57.13;;;25.35;;
58864;SDS011;45702;52.982;6.658;2023-10-19T11:18:28;64.43;;;26.52;;
58864;SDS011;45702;52.982;6.658;2023-10-19T11:20:54;56.65;;;25.73;;
58864;SDS011;45702;52.982;6.658;2023-10-19T11:23:34;56.63;;;25.77;;
58864;SDS011;45702;52.982;6.658;2023-10-19T11:26:01;62.63;;;26.70;;
58864;SDS011;45702;52.982;6.658;2023-10-19T11:28:33;71.22;;;27.58;;
58864;SDS011;45702;52.982;6.658;2023-10-19T11:31:13;70.05;;;27.23;;
58864;SDS011;45702;52.982;6.658;2023-10-19T11:33:47;58.58;;;26.98;;
58864;SDS011;45702;52.982;6.658;2023-10-19T11:36:16;72.65;;;28.13;;
58864;SDS011;45702;52.982;6.658;2023-10-19T11:38:44;65.85;;;28.60;;
58864;SDS011;45702;52.982;6.658;2023-10-19T11:41:12;67.35;;;26.98;;
58864;SDS011;45702;52.982;6.658;2023-10-19T11:43:48;70.68;;;28.85;;
58864;SDS011;45702;52.982;6.658;2023-10-19T11:46:14;62.20;;;28.23;;
58864;SDS011;45702;52.982;6.658;2023-10-19T11:48:42;63.08;;;27.67;;
58864;SDS011;45702;52.982;6.658;2023-10-19T11:51:08;65.18;;;27.98;;
58864;SDS011;45702;52.982;6.658;2023-10-19T11:53:40;58.15;;;26.77;;
58864;SDS011;45702;52.982;6.658;2023-10-19T11:56:07;66.57;;;28.00;;
58864;SDS011;45702;52.982;6.658;2023-10-19T11:58:34;66.70;;;29.15;;
58864;SDS011;45702;52.982;6.658;2023-10-19T12:01:02;71.78;;;29.77;;
58864;SDS011;45702;52.982;6.658;2023-10-19T12:03:30;63.33;;;27.90;;
58864;SDS011;45702;52.982;6.658;2023-10-19T12:05:56;54.55;;;26.77;;
58864;SDS011;45702;52.982;6.658;2023-10-19T12:08:22;64.60;;;27.75;;
58864;SDS011;45702;52.982;6.658;2023-10-19T12:10:49;59.85;;;27.27;;
58864;SDS011;45702;52.982;6.658;2023-10-19T12:13:15;55.50;;;26.80;;
58864;SDS011;45702;52.982;6.658;2023-10-19T12:15:42;55.75;;;27.02;;
58864;SDS011;45702;52.982;6.658;2023-10-19T12:18:16;59.25;;;26.20;;
58864;SDS011;45702;52.982;6.658;2023-10-19T12:20:44;47.40;;;25.37;;
58864;SDS011;45702;52.982;6.658;2023-10-19T12:23:11;52.53;;;25.80;;
58864;SDS011;45702;52.982;6.658;2023-10-19T12:25:37;48.67;;;25.00;;
58864;SDS011;45702;52.982;6.658;2023-10-19T12:28:03;57.80;;;27.20;;
58864;SDS011;45702;52.982;6.658;2023-10-19T12:30:29;51.13;;;25.63;;
58864;SDS011;45702;52.982;6.658;2023-10-19T12:33:02;52.10;;;25.42;;
58864;SDS011;45702;52.982;6.658;2023-10-19T12:35:36;51.67;;;24.63;;
58864;SDS011;45702;52.982;6.658;2023-10-19T12:38:16;49.88;;;25.20;;
58864;SDS011;45702;52.982;6.658;2023-10-19T12:40:43;44.58;;;23.80;;
58864;SDS011;45702;52.982;6.658;2023-10-19T12:43:11;43.90;;;23.67;;
58864;SDS011;45702;52.982;6.658;2023-10-19T12:45:37;42.22;;;23.85;;
58864;SDS011;45702;52.982;6.658;2023-10-19T12:48:03;46.08;;;23.90;;
58864;SDS011;45702;52.982;6.658;2023-10-19T12:50:30;45.80;;;23.30;;
58864;SDS011;45702;52.982;6.658;2023-10-19T12:52:56;47.45;;;23.92;;
58864;SDS011;45702;52.982;6.658;2023-10-19T12:55:21;43.95;;;23.70;;
58864;SDS011;45702;52.982;6.658;2023-10-19T12:57:50;49.75;;;27.17;;
58864;SDS011;45702;52.982;6.658;2023-10-19T13:00:16;47.30;;;25.33;;
58864;SDS011;45702;52.982;6.658;2023-10-19T13:02:51;56.20;;;27.80;;
58864;SDS011;45702;52.982;6.658;2023-10-19T13:05:32;49.28;;;26.63;;
58864;SDS011;45702;52.982;6.658;2023-10-19T13:07:58;49.30;;;25.80;;
58864;SDS011;45702;52.982;6.658;2023-10-19T13:10:27;47.90;;;25.95;;
58864;SDS011;45702;52.982;6.658;2023-10-19T13:12:57;48.63;;;27.77;;
58864;SDS011;45702;52.982;6.658;2023-10-19T13:15:30;49.40;;;25.52;;
58864;SDS011;45702;52.982;6.658;2023-10-19T13:17:57;46.50;;;25.98;;
58864;SDS011;45702;52.982;6.658;2023-10-19T13:20:26;50.65;;;28.05;;
58864;SDS011;45702;52.982;6.658;2023-10-19T13:22:53;51.63;;;28.05;;
58864;SDS011;45702;52.982;6.658;2023-10-19T13:25:21;51.80;;;28.17;;
58864;SDS011;45702;52.982;6.658;2023-10-19T13:28:04;59.33;;;31.90;;
58864;SDS011;45702;52.982;6.658;2023-10-19T13:30:41;59.95;;;33.35;;
58864;SDS011;45702;52.982;6.658;2023-10-19T13:33:08;55.80;;;29.92;;
58864;SDS011;45702;52.982;6.658;2023-10-19T13:35:39;45.47;;;26.35;;
58864;SDS011;45702;52.982;6.658;2023-10-19T13:38:07;47.58;;;27.17;;
58864;SDS011;45702;52.982;6.658;2023-10-19T13:40:35;50.53;;;25.38;;
58864;SDS011;45702;52.982;6.658;2023-10-19T13:43:01;51.17;;;26.52;;
58864;SDS011;45702;52.982;6.658;2023-10-19T13:45:30;44.28;;;25.77;;
58864;SDS011;45702;52.982;6.658;2023-10-19T13:48:01;45.80;;;24.70;;
58864;SDS011;45702;52.982;6.658;2023-10-19T13:50:28;48.57;;;26.20;;
58864;SDS011;45702;52.982;6.658;2023-10-19T13:52:58;44.83;;;24.25;;
58864;SDS011;45702;52.982;6.658;2023-10-19T13:55:28;46.25;;;23.73;;
58864;SDS011;45702;52.982;6.658;2023-10-19T13:57:54;45.47;;;23.83;;
58864;SDS011;45702;52.982;6.658;2023-10-19T14:00:21;47.83;;;24.58;;
58864;SDS011;45702;52.982;6.658;2023-10-19T14:03:00;43.20;;;23.25;;
58864;SDS011;45702;52.982;6.658;2023-10-19T14:05:26;40.83;;;23.00;;
58864;SDS011;45702;52.982;6.658;2023-10-19T14:07:53;48.72;;;22.63;;
58864;SDS011;45702;52.982;6.658;2023-10-19T14:10:19;40.90;;;21.67;;
58864;SDS011;45702;52.982;6.658;2023-10-19T14:12:45;46.38;;;22.50;;
58864;SDS011;45702;52.982;6.658;2023-10-19T14:15:12;45.20;;;23.15;;
58864;SDS011;45702;52.982;6.658;2023-10-19T14:17:43;49.90;;;25.08;;
58864;SDS011;45702;52.982;6.658;2023-10-19T14:20:13;42.05;;;23.25;;
58864;SDS011;45702;52.982;6.658;2023-10-19T14:22:42;47.33;;;24.42;;
58864;SDS011;45702;52.982;6.658;2023-10-19T14:25:09;45.83;;;23.17;;
58864;SDS011;45702;52.982;6.658;2023-10-19T14:27:44;45.70;;;22.40;;
58864;SDS011;45702;52.982;6.658;2023-10-19T14:30:12;43.55;;;21.98;;
58864;SDS011;45702;52.982;6.658;2023-10-19T14:32:40;42.15;;;21.65;;
58864;SDS011;45702;52.982;6.658;2023-10-19T14:35:08;44.90;;;23.85;;
58864;SDS011;45702;52.982;6.658;2023-10-19T14:37:39;49.85;;;23.33;;
58864;SDS011;45702;52.982;6.658;2023-10-19T14:40:07;47.95;;;23.63;;
58864;SDS011;45702;52.982;6.658;2023-10-19T14:42:39;45.33;;;23.77;;
58864;SDS011;45702;52.982;6.658;2023-10-19T14:47:39;42.95;;;22.90;;
58864;SDS011;45702;52.982;6.658;2023-10-19T14:50:15;48.40;;;24.25;;
58864;SDS011;45702;52.982;6.658;2023-10-19T14:52:43;46.30;;;24.38;;
58864;SDS011;45702;52.982;6.658;2023-10-19T14:55:10;44.78;;;23.42;;
58864;SDS011;45702;52.982;6.658;2023-10-19T14:57:37;52.78;;;26.02;;
58864;SDS011;45702;52.982;6.658;2023-10-19T15:00:05;47.70;;;25.13;;
58864;SDS011;45702;52.982;6.658;2023-10-19T15:02:55;48.95;;;24.67;;